sensor_id;sensor_type;location;lat;lon;timestamp;temperature;humidity
78212;SHT31;67490;52.086;5.122;2023-07-28T00:00:53;22.73;72.31
78212;SHT31;67490;52.086;5.122;2023-07-28T00:03:37;22.69;72.37
78212;SHT31;67490;52.086;5.122;2023-07-28T00:06:21;22.68;72.18
78212;SHT31;67490;52.086;5.122;2023-07-28T00:09:06;22.59;72.45
78212;SHT31;67490;52.086;5.122;2023-07-28T00:11:51;22.54;72.81
78212;SHT31;67490;52.086;5.122;2023-07-28T00:14:35;22.55;72.70
78212;SHT31;67490;52.086;5.122;2023-07-28T00:17:19;22.51;72.56
78212;SHT31;67490;52.086;5.122;2023-07-28T00:20:04;22.52;72.74
78212;SHT31;67490;52.086;5.122;2023-07-28T00:22:49;22.58;72.57
78212;SHT31;67490;52.086;5.122;2023-07-28T00:25:35;22.61;72.41
78212;SHT31;67490;52.086;5.122;2023-07-28T00:28:19;22.62;72.45
78212;SHT31;67490;52.086;5.122;2023-07-28T00:31:03;22.69;72.34
78212;SHT31;67490;52.086;5.122;2023-07-28T00:33:47;22.71;72.19
78212;SHT31;67490;52.086;5.122;2023-07-28T00:36:32;22.71;71.87
78212;SHT31;67490;52.086;5.122;2023-07-28T00:39:16;22.69;71.92
78212;SHT31;67490;52.086;5.122;2023-07-28T00:42:02;22.62;72.24
78212;SHT31;67490;52.086;5.122;2023-07-28T00:44:46;22.58;72.24
78212;SHT31;67490;52.086;5.122;2023-07-28T00:47:31;22.51;72.59
78212;SHT31;67490;52.086;5.122;2023-07-28T00:50:16;22.55;72.53
78212;SHT31;67490;52.086;5.122;2023-07-28T00:53:00;22.61;72.30
78212;SHT31;67490;52.086;5.122;2023-07-28T00:55:45;22.47;72.52
78212;SHT31;67490;52.086;5.122;2023-07-28T00:58:31;22.47;72.85
78212;SHT31;67490;52.086;5.122;2023-07-28T01:01:15;22.48;72.75
78212;SHT31;67490;52.086;5.122;2023-07-28T01:04:00;22.48;72.77
78212;SHT31;67490;52.086;5.122;2023-07-28T01:07:01;22.43;72.82
78212;SHT31;67490;52.086;5.122;2023-07-28T01:09:55;22.30;73.26
78212;SHT31;67490;52.086;5.122;2023-07-28T01:12:40;22.35;73.02
78212;SHT31;67490;52.086;5.122;2023-07-28T01:15:26;22.45;72.85
78212;SHT31;67490;52.086;5.122;2023-07-28T01:18:10;22.43;72.98
78212;SHT31;67490;52.086;5.122;2023-07-28T01:20:57;22.49;72.75
78212;SHT31;67490;52.086;5.122;2023-07-28T01:23:58;22.49;72.75
78212;SHT31;67490;52.086;5.122;2023-07-28T01:26:48;22.54;72.50
78212;SHT31;67490;52.086;5.122;2023-07-28T01:29:35;22.59;72.22
78212;SHT31;67490;52.086;5.122;2023-07-28T01:32:20;22.51;72.55
78212;SHT31;67490;52.086;5.122;2023-07-28T01:35:05;22.43;73.71
78212;SHT31;67490;52.086;5.122;2023-07-28T01:37:50;22.27;74.41
78212;SHT31;67490;52.086;5.122;2023-07-28T01:40:34;22.24;74.83
78212;SHT31;67490;52.086;5.122;2023-07-28T01:43:20;22.28;74.75
78212;SHT31;67490;52.086;5.122;2023-07-28T01:46:04;22.25;74.70
78212;SHT31;67490;52.086;5.122;2023-07-28T01:48:49;22.30;74.44
78212;SHT31;67490;52.086;5.122;2023-07-28T01:51:33;22.28;74.56
78212;SHT31;67490;52.086;5.122;2023-07-28T01:54:17;22.25;74.48
78212;SHT31;67490;52.086;5.122;2023-07-28T01:57:01;22.24;74.88
78212;SHT31;67490;52.086;5.122;2023-07-28T01:59:47;22.31;74.70
78212;SHT31;67490;52.086;5.122;2023-07-28T02:02:32;22.20;74.82
78212;SHT31;67490;52.086;5.122;2023-07-28T02:05:16;22.20;74.95
78212;SHT31;67490;52.086;5.122;2023-07-28T02:08:01;22.20;74.91
78212;SHT31;67490;52.086;5.122;2023-07-28T02:10:45;22.31;74.90
78212;SHT31;67490;52.086;5.122;2023-07-28T02:13:29;22.30;74.60
78212;SHT31;67490;52.086;5.122;2023-07-28T02:16:15;22.30;74.66
78212;SHT31;67490;52.086;5.122;2023-07-28T02:18:59;22.24;74.72
78212;SHT31;67490;52.086;5.122;2023-07-28T02:21:43;22.30;74.72
78212;SHT31;67490;52.086;5.122;2023-07-28T02:24:27;22.28;74.60
78212;SHT31;67490;52.086;5.122;2023-07-28T02:27:11;22.25;74.80
78212;SHT31;67490;52.086;5.122;2023-07-28T02:29:56;22.30;74.62
78212;SHT31;67490;52.086;5.122;2023-07-28T02:32:42;22.34;74.40
78212;SHT31;67490;52.086;5.122;2023-07-28T02:35:26;22.34;74.40
78212;SHT31;67490;52.086;5.122;2023-07-28T02:38:10;22.28;74.26
78212;SHT31;67490;52.086;5.122;2023-07-28T02:40:55;22.24;74.65
78212;SHT31;67490;52.086;5.122;2023-07-28T02:43:39;22.35;74.44
78212;SHT31;67490;52.086;5.122;2023-07-28T02:46:24;22.34;74.45
78212;SHT31;67490;52.086;5.122;2023-07-28T02:49:11;22.20;74.59
78212;SHT31;67490;52.086;5.122;2023-07-28T02:51:55;22.22;74.83
78212;SHT31;67490;52.086;5.122;2023-07-28T02:54:39;22.18;74.72
78212;SHT31;67490;52.086;5.122;2023-07-28T02:57:24;22.16;75.15
78212;SHT31;67490;52.086;5.122;2023-07-28T03:00:09;22.20;75.16
78212;SHT31;67490;52.086;5.122;2023-07-28T03:02:55;22.30;74.95
78212;SHT31;67490;52.086;5.122;2023-07-28T03:05:40;22.43;74.76
78212;SHT31;67490;52.086;5.122;2023-07-28T03:08:25;22.43;74.20
78212;SHT31;67490;52.086;5.122;2023-07-28T03:11:09;22.43;74.35
78212;SHT31;67490;52.086;5.122;2023-07-28T03:13:53;22.40;74.58
78212;SHT31;67490;52.086;5.122;2023-07-28T03:16:37;22.44;74.26
78212;SHT31;67490;52.086;5.122;2023-07-28T03:19:21;22.43;74.37
78212;SHT31;67490;52.086;5.122;2023-07-28T03:22:07;22.41;74.37
78212;SHT31;67490;52.086;5.122;2023-07-28T03:24:51;22.40;74.61
78212;SHT31;67490;52.086;5.122;2023-07-28T03:27:35;22.45;74.31
78212;SHT31;67490;52.086;5.122;2023-07-28T03:30:20;22.49;74.32
78212;SHT31;67490;52.086;5.122;2023-07-28T03:33:04;22.51;74.02
78212;SHT31;67490;52.086;5.122;2023-07-28T03:35:48;22.51;74.14
78212;SHT31;67490;52.086;5.122;2023-07-28T03:38:33;22.54;74.01
78212;SHT31;67490;52.086;5.122;2023-07-28T03:41:18;22.45;74.35
78212;SHT31;67490;52.086;5.122;2023-07-28T03:44:03;22.47;74.37
78212;SHT31;67490;52.086;5.122;2023-07-28T03:46:47;22.47;74.50
78212;SHT31;67490;52.086;5.122;2023-07-28T03:49:32;22.49;74.45
78212;SHT31;67490;52.086;5.122;2023-07-28T03:52:16;22.48;74.35
78212;SHT31;67490;52.086;5.122;2023-07-28T03:55:02;22.47;74.49
78212;SHT31;67490;52.086;5.122;2023-07-28T03:57:47;22.51;74.36
78212;SHT31;67490;52.086;5.122;2023-07-28T04:00:31;22.48;74.51
78212;SHT31;67490;52.086;5.122;2023-07-28T04:03:16;22.47;74.45
78212;SHT31;67490;52.086;5.122;2023-07-28T04:06:00;22.48;74.25
78212;SHT31;67490;52.086;5.122;2023-07-28T04:08:44;22.37;74.87
78212;SHT31;67490;52.086;5.122;2023-07-28T04:11:30;22.43;74.58
78212;SHT31;67490;52.086;5.122;2023-07-28T04:14:14;22.48;74.60
78212;SHT31;67490;52.086;5.122;2023-07-28T04:16:59;22.48;74.46
78212;SHT31;67490;52.086;5.122;2023-07-28T04:19:43;22.52;74.51
78212;SHT31;67490;52.086;5.122;2023-07-28T04:22:27;22.58;74.39
78212;SHT31;67490;52.086;5.122;2023-07-28T04:25:11;22.54;74.51
78212;SHT31;67490;52.086;5.122;2023-07-28T04:27:57;22.54;74.45
78212;SHT31;67490;52.086;5.122;2023-07-28T04:30:41;22.59;74.11
78212;SHT31;67490;52.086;5.122;2023-07-28T04:33:25;22.64;74.18
78212;SHT31;67490;52.086;5.122;2023-07-28T04:36:10;22.65;73.86
78212;SHT31;67490;52.086;5.122;2023-07-28T04:38:54;22.65;73.94
78212;SHT31;67490;52.086;5.122;2023-07-28T04:41:39;22.52;74.27
78212;SHT31;67490;52.086;5.122;2023-07-28T04:44:24;22.55;74.05
78212;SHT31;67490;52.086;5.122;2023-07-28T04:47:09;22.45;74.54
78212;SHT31;67490;52.086;5.122;2023-07-28T04:49:53;22.47;74.44
78212;SHT31;67490;52.086;5.122;2023-07-28T04:52:37;22.45;74.52
78212;SHT31;67490;52.086;5.122;2023-07-28T04:55:21;22.48;74.30
78212;SHT31;67490;52.086;5.122;2023-07-28T04:58:05;22.56;74.31
78212;SHT31;67490;52.086;5.122;2023-07-28T05:00:51;22.61;74.18
78212;SHT31;67490;52.086;5.122;2023-07-28T05:03:35;22.56;74.15
78212;SHT31;67490;52.086;5.122;2023-07-28T05:06:19;22.64;74.15
78212;SHT31;67490;52.086;5.122;2023-07-28T05:09:04;22.55;74.17
78212;SHT31;67490;52.086;5.122;2023-07-28T05:11:48;22.58;74.35
78212;SHT31;67490;52.086;5.122;2023-07-28T05:14:32;22.58;74.16
78212;SHT31;67490;52.086;5.122;2023-07-28T05:17:18;22.51;74.36
78212;SHT31;67490;52.086;5.122;2023-07-28T05:20:03;22.40;74.94
78212;SHT31;67490;52.086;5.122;2023-07-28T05:22:47;22.34;75.23
78212;SHT31;67490;52.086;5.122;2023-07-28T05:25:32;22.35;75.25
78212;SHT31;67490;52.086;5.122;2023-07-28T05:28:16;22.40;75.03
78212;SHT31;67490;52.086;5.122;2023-07-28T05:31:03;22.41;75.27
78212;SHT31;67490;52.086;5.122;2023-07-28T05:33:49;22.54;74.61
78212;SHT31;67490;52.086;5.122;2023-07-28T05:36:34;22.52;74.79
78212;SHT31;67490;52.086;5.122;2023-07-28T05:39:18;22.62;74.73
78212;SHT31;67490;52.086;5.122;2023-07-28T05:42:03;22.72;74.50
78212;SHT31;67490;52.086;5.122;2023-07-28T05:44:47;22.79;74.15
78212;SHT31;67490;52.086;5.122;2023-07-28T05:47:32;22.73;74.15
78212;SHT31;67490;52.086;5.122;2023-07-28T05:50:18;22.75;74.35
78212;SHT31;67490;52.086;5.122;2023-07-28T05:53:02;22.76;74.24
78212;SHT31;67490;52.086;5.122;2023-07-28T05:55:47;22.82;74.09
78212;SHT31;67490;52.086;5.122;2023-07-28T05:58:32;22.81;74.01
78212;SHT31;67490;52.086;5.122;2023-07-28T06:01:17;22.75;74.13
78212;SHT31;67490;52.086;5.122;2023-07-28T06:04:02;22.81;74.34
78212;SHT31;67490;52.086;5.122;2023-07-28T06:06:48;22.81;74.37
78212;SHT31;67490;52.086;5.122;2023-07-28T06:09:32;22.83;74.23
78212;SHT31;67490;52.086;5.122;2023-07-28T06:12:17;22.82;73.93
78212;SHT31;67490;52.086;5.122;2023-07-28T06:15:02;22.83;74.22
78212;SHT31;67490;52.086;5.122;2023-07-28T06:17:47;22.88;73.94
78212;SHT31;67490;52.086;5.122;2023-07-28T06:20:31;22.91;74.14
78212;SHT31;67490;52.086;5.122;2023-07-28T06:23:17;22.88;73.69
78212;SHT31;67490;52.086;5.122;2023-07-28T06:26:02;22.86;73.99
78212;SHT31;67490;52.086;5.122;2023-07-28T06:28:46;22.82;73.89
78212;SHT31;67490;52.086;5.122;2023-07-28T06:31:31;22.82;74.01
78212;SHT31;67490;52.086;5.122;2023-07-28T06:34:15;22.83;74.27
78212;SHT31;67490;52.086;5.122;2023-07-28T06:37:00;22.86;74.21
78212;SHT31;67490;52.086;5.122;2023-07-28T06:39:45;22.86;74.04
78212;SHT31;67490;52.086;5.122;2023-07-28T06:42:30;22.91;74.17
78212;SHT31;67490;52.086;5.122;2023-07-28T06:45:15;22.96;73.89
78212;SHT31;67490;52.086;5.122;2023-07-28T06:47:59;22.86;73.86
78212;SHT31;67490;52.086;5.122;2023-07-28T06:50:44;22.89;74.14
78212;SHT31;67490;52.086;5.122;2023-07-28T06:53:28;22.85;74.06
78212;SHT31;67490;52.086;5.122;2023-07-28T06:56:14;22.76;74.10
78212;SHT31;67490;52.086;5.122;2023-07-28T06:58:58;22.79;74.33
78212;SHT31;67490;52.086;5.122;2023-07-28T07:01:42;22.77;74.31
78212;SHT31;67490;52.086;5.122;2023-07-28T07:04:27;22.76;74.54
78212;SHT31;67490;52.086;5.122;2023-07-28T07:07:11;22.88;74.38
78212;SHT31;67490;52.086;5.122;2023-07-28T07:09:55;22.95;73.98
78212;SHT31;67490;52.086;5.122;2023-07-28T07:12:41;22.92;73.82
78212;SHT31;67490;52.086;5.122;2023-07-28T07:15:25;22.99;73.83
78212;SHT31;67490;52.086;5.122;2023-07-28T07:18:09;23.06;73.59
78212;SHT31;67490;52.086;5.122;2023-07-28T07:20:53;23.10;73.25
78212;SHT31;67490;52.086;5.122;2023-07-28T07:23:38;23.06;73.61
78212;SHT31;67490;52.086;5.122;2023-07-28T07:26:22;23.06;73.35
78212;SHT31;67490;52.086;5.122;2023-07-28T07:29:08;23.05;73.48
78212;SHT31;67490;52.086;5.122;2023-07-28T07:31:53;23.09;73.60
78212;SHT31;67490;52.086;5.122;2023-07-28T07:34:40;23.14;73.11
78212;SHT31;67490;52.086;5.122;2023-07-28T07:37:24;23.17;72.49
78212;SHT31;67490;52.086;5.122;2023-07-28T07:40:09;23.06;72.40
78212;SHT31;67490;52.086;5.122;2023-07-28T07:42:54;22.98;73.16
78212;SHT31;67490;52.086;5.122;2023-07-28T07:45:41;22.95;73.14
78212;SHT31;67490;52.086;5.122;2023-07-28T07:48:26;23.03;72.83
78212;SHT31;67490;52.086;5.122;2023-07-28T07:51:11;22.98;72.84
78212;SHT31;67490;52.086;5.122;2023-07-28T07:53:55;22.86;72.91
78212;SHT31;67490;52.086;5.122;2023-07-28T07:56:41;22.77;73.30
78212;SHT31;67490;52.086;5.122;2023-07-28T07:59:25;22.93;73.21
78212;SHT31;67490;52.086;5.122;2023-07-28T08:02:13;23.12;72.74
78212;SHT31;67490;52.086;5.122;2023-07-28T08:04:57;23.33;71.67
78212;SHT31;67490;52.086;5.122;2023-07-28T08:07:42;23.47;71.31
78212;SHT31;67490;52.086;5.122;2023-07-28T08:10:26;23.60;70.98
78212;SHT31;67490;52.086;5.122;2023-07-28T08:13:10;23.60;70.69
78212;SHT31;67490;52.086;5.122;2023-07-28T08:15:55;23.61;70.75
78212;SHT31;67490;52.086;5.122;2023-07-28T08:18:41;23.75;70.44
78212;SHT31;67490;52.086;5.122;2023-07-28T08:21:25;23.67;69.91
78212;SHT31;67490;52.086;5.122;2023-07-28T08:24:10;23.68;69.93
78212;SHT31;67490;52.086;5.122;2023-07-28T08:26:56;23.61;69.64
78212;SHT31;67490;52.086;5.122;2023-07-28T08:29:40;23.82;69.65
78212;SHT31;67490;52.086;5.122;2023-07-28T08:32:25;23.82;69.17
78212;SHT31;67490;52.086;5.122;2023-07-28T08:35:11;23.81;68.65
78212;SHT31;67490;52.086;5.122;2023-07-28T08:37:55;24.64;67.45
78212;SHT31;67490;52.086;5.122;2023-07-28T08:40:40;25.43;65.38
78212;SHT31;67490;52.086;5.122;2023-07-28T08:43:24;26.10;65.09
78212;SHT31;67490;52.086;5.122;2023-07-28T08:46:08;26.30;63.87
78212;SHT31;67490;52.086;5.122;2023-07-28T08:48:54;26.24;63.31
78212;SHT31;67490;52.086;5.122;2023-07-28T08:51:42;25.96;63.83
78212;SHT31;67490;52.086;5.122;2023-07-28T08:54:26;25.93;63.81
78212;SHT31;67490;52.086;5.122;2023-07-28T08:57:11;25.68;65.01
78212;SHT31;67490;52.086;5.122;2023-07-28T08:59:55;25.73;64.10
78212;SHT31;67490;52.086;5.122;2023-07-28T09:02:41;26.12;62.91
78212;SHT31;67490;52.086;5.122;2023-07-28T09:05:25;26.09;63.00
78212;SHT31;67490;52.086;5.122;2023-07-28T09:08:11;26.07;63.39
78212;SHT31;67490;52.086;5.122;2023-07-28T09:10:56;25.80;63.43
78212;SHT31;67490;52.086;5.122;2023-07-28T09:13:45;25.38;64.77
78212;SHT31;67490;52.086;5.122;2023-07-28T09:16:30;25.17;65.36
78212;SHT31;67490;52.086;5.122;2023-07-28T09:19:16;25.14;65.34
78212;SHT31;67490;52.086;5.122;2023-07-28T09:22:02;25.17;65.39
78212;SHT31;67490;52.086;5.122;2023-07-28T09:24:48;25.29;65.44
78212;SHT31;67490;52.086;5.122;2023-07-28T09:27:33;25.58;64.05
78212;SHT31;67490;52.086;5.122;2023-07-28T09:30:18;25.88;63.28
78212;SHT31;67490;52.086;5.122;2023-07-28T09:33:02;25.89;63.41
78212;SHT31;67490;52.086;5.122;2023-07-28T09:35:49;25.68;63.51
78212;SHT31;67490;52.086;5.122;2023-07-28T09:38:36;25.63;63.82
78212;SHT31;67490;52.086;5.122;2023-07-28T09:41:24;25.90;63.22
78212;SHT31;67490;52.086;5.122;2023-07-28T09:44:09;26.44;62.13
78212;SHT31;67490;52.086;5.122;2023-07-28T09:46:55;26.64;61.49
78212;SHT31;67490;52.086;5.122;2023-07-28T09:49:41;26.59;60.96
78212;SHT31;67490;52.086;5.122;2023-07-28T09:52:33;26.41;61.56
78212;SHT31;67490;52.086;5.122;2023-07-28T09:55:20;26.59;60.74
78212;SHT31;67490;52.086;5.122;2023-07-28T09:58:09;26.24;61.46
78212;SHT31;67490;52.086;5.122;2023-07-28T10:00:55;26.74;60.81
78212;SHT31;67490;52.086;5.122;2023-07-28T10:03:40;26.79;60.61
78212;SHT31;67490;52.086;5.122;2023-07-28T10:06:26;26.75;60.12
78212;SHT31;67490;52.086;5.122;2023-07-28T10:09:10;27.17;59.91
78212;SHT31;67490;52.086;5.122;2023-07-28T10:11:56;27.25;59.12
78212;SHT31;67490;52.086;5.122;2023-07-28T10:14:42;26.99;59.65
78212;SHT31;67490;52.086;5.122;2023-07-28T10:17:31;27.42;58.50
78212;SHT31;67490;52.086;5.122;2023-07-28T10:20:32;28.02;57.45
78212;SHT31;67490;52.086;5.122;2023-07-28T10:23:20;28.59;55.56
78212;SHT31;67490;52.086;5.122;2023-07-28T10:26:05;28.96;54.59
78212;SHT31;67490;52.086;5.122;2023-07-28T10:28:51;28.84;54.14
78212;SHT31;67490;52.086;5.122;2023-07-28T10:31:38;28.26;54.66
78212;SHT31;67490;52.086;5.122;2023-07-28T10:34:32;28.67;55.08
78212;SHT31;67490;52.086;5.122;2023-07-28T10:37:16;29.38;54.00
78212;SHT31;67490;52.086;5.122;2023-07-28T10:40:22;29.96;52.00
78212;SHT31;67490;52.086;5.122;2023-07-28T10:43:07;30.50;51.03
78212;SHT31;67490;52.086;5.122;2023-07-28T10:45:51;30.43;50.76
78212;SHT31;67490;52.086;5.122;2023-07-28T10:48:41;30.56;50.40
78212;SHT31;67490;52.086;5.122;2023-07-28T10:51:26;30.56;50.20
78212;SHT31;67490;52.086;5.122;2023-07-28T10:54:17;30.37;50.90
78212;SHT31;67490;52.086;5.122;2023-07-28T10:57:04;30.26;50.45
78212;SHT31;67490;52.086;5.122;2023-07-28T10:59:50;29.69;51.86
78212;SHT31;67490;52.086;5.122;2023-07-28T11:02:37;28.76;53.63
78212;SHT31;67490;52.086;5.122;2023-07-28T11:05:25;28.26;55.49
78212;SHT31;67490;52.086;5.122;2023-07-28T11:08:10;28.08;55.99
78212;SHT31;67490;52.086;5.122;2023-07-28T11:10:55;28.02;56.71
78212;SHT31;67490;52.086;5.122;2023-07-28T11:13:40;28.09;56.17
78212;SHT31;67490;52.086;5.122;2023-07-28T11:16:25;27.84;56.16
78212;SHT31;67490;52.086;5.122;2023-07-28T11:19:11;27.45;57.27
78212;SHT31;67490;52.086;5.122;2023-07-28T11:21:56;27.20;57.71
78212;SHT31;67490;52.086;5.122;2023-07-28T11:24:42;27.29;58.30
78212;SHT31;67490;52.086;5.122;2023-07-28T11:27:27;27.25;58.12
78212;SHT31;67490;52.086;5.122;2023-07-28T11:30:14;27.29;58.08
78212;SHT31;67490;52.086;5.122;2023-07-28T11:32:59;27.36;58.63
78212;SHT31;67490;52.086;5.122;2023-07-28T11:35:44;27.30;58.56
78212;SHT31;67490;52.086;5.122;2023-07-28T11:38:31;27.40;58.29
78212;SHT31;67490;52.086;5.122;2023-07-28T11:41:16;27.33;57.80
78212;SHT31;67490;52.086;5.122;2023-07-28T11:44:02;27.29;58.11
78212;SHT31;67490;52.086;5.122;2023-07-28T11:46:47;27.22;58.06
78212;SHT31;67490;52.086;5.122;2023-07-28T11:49:31;27.33;58.01
78212;SHT31;67490;52.086;5.122;2023-07-28T11:52:16;27.17;58.12
78212;SHT31;67490;52.086;5.122;2023-07-28T11:55:03;27.16;58.03
78212;SHT31;67490;52.086;5.122;2023-07-28T11:57:49;27.12;58.05
78212;SHT31;67490;52.086;5.122;2023-07-28T12:00:36;27.20;58.55
78212;SHT31;67490;52.086;5.122;2023-07-28T12:03:29;27.20;57.86
78212;SHT31;67490;52.086;5.122;2023-07-28T12:06:14;27.02;57.78
78212;SHT31;67490;52.086;5.122;2023-07-28T12:09:04;27.05;58.02
78212;SHT31;67490;52.086;5.122;2023-07-28T12:11:51;27.08;58.61
78212;SHT31;67490;52.086;5.122;2023-07-28T12:14:35;27.20;58.34
78212;SHT31;67490;52.086;5.122;2023-07-28T12:17:21;27.06;58.56
78212;SHT31;67490;52.086;5.122;2023-07-28T12:20:07;27.00;58.16
78212;SHT31;67490;52.086;5.122;2023-07-28T12:22:55;26.82;58.37
78212;SHT31;67490;52.086;5.122;2023-07-28T12:25:40;26.82;59.14
78212;SHT31;67490;52.086;5.122;2023-07-28T12:28:25;26.74;59.27
78212;SHT31;67490;52.086;5.122;2023-07-28T12:31:10;26.78;59.35
78212;SHT31;67490;52.086;5.122;2023-07-28T12:33:54;26.92;59.02
78212;SHT31;67490;52.086;5.122;2023-07-28T12:36:38;27.03;58.64
78212;SHT31;67490;52.086;5.122;2023-07-28T12:39:22;26.95;58.47
78212;SHT31;67490;52.086;5.122;2023-07-28T12:42:07;26.92;58.54
78212;SHT31;67490;52.086;5.122;2023-07-28T12:44:53;26.89;58.47
78212;SHT31;67490;52.086;5.122;2023-07-28T12:47:38;26.86;58.65
78212;SHT31;67490;52.086;5.122;2023-07-28T12:50:23;26.82;58.54
78212;SHT31;67490;52.086;5.122;2023-07-28T12:53:08;26.98;58.39
78212;SHT31;67490;52.086;5.122;2023-07-28T12:55:52;27.00;57.55
78212;SHT31;67490;52.086;5.122;2023-07-28T12:58:37;26.81;58.28
78212;SHT31;67490;52.086;5.122;2023-07-28T13:01:22;26.74;59.13
78212;SHT31;67490;52.086;5.122;2023-07-28T13:04:07;26.72;59.11
78212;SHT31;67490;52.086;5.122;2023-07-28T13:06:51;26.69;58.87
78212;SHT31;67490;52.086;5.122;2023-07-28T13:09:36;26.69;58.55
78212;SHT31;67490;52.086;5.122;2023-07-28T13:12:20;26.84;58.50
78212;SHT31;67490;52.086;5.122;2023-07-28T13:15:05;27.02;58.21
78212;SHT31;67490;52.086;5.122;2023-07-28T13:17:51;26.95;58.35
78212;SHT31;67490;52.086;5.122;2023-07-28T13:20:36;27.06;57.96
78212;SHT31;67490;52.086;5.122;2023-07-28T13:23:20;27.05;58.05
78212;SHT31;67490;52.086;5.122;2023-07-28T13:26:04;26.96;57.91
78212;SHT31;67490;52.086;5.122;2023-07-28T13:28:49;26.98;57.37
78212;SHT31;67490;52.086;5.122;2023-07-28T13:31:33;26.89;57.34
78212;SHT31;67490;52.086;5.122;2023-07-28T13:34:18;26.75;57.72
78212;SHT31;67490;52.086;5.122;2023-07-28T13:37:03;26.89;57.78
78212;SHT31;67490;52.086;5.122;2023-07-28T13:39:48;27.02;57.56
78212;SHT31;67490;52.086;5.122;2023-07-28T13:42:33;26.85;56.86
78212;SHT31;67490;52.086;5.122;2023-07-28T13:45:18;26.99;56.84
78212;SHT31;67490;52.086;5.122;2023-07-28T13:48:02;27.23;56.57
78212;SHT31;67490;52.086;5.122;2023-07-28T13:50:47;27.08;56.17
78212;SHT31;67490;52.086;5.122;2023-07-28T13:53:32;27.12;56.33
78212;SHT31;67490;52.086;5.122;2023-07-28T13:56:16;27.09;55.88
78212;SHT31;67490;52.086;5.122;2023-07-28T13:59:01;27.10;56.64
78212;SHT31;67490;52.086;5.122;2023-07-28T14:01:45;27.09;56.23
78212;SHT31;67490;52.086;5.122;2023-07-28T14:04:29;27.05;56.23
78212;SHT31;67490;52.086;5.122;2023-07-28T14:07:15;27.10;55.85
78212;SHT31;67490;52.086;5.122;2023-07-28T14:09:59;27.08;55.32
78212;SHT31;67490;52.086;5.122;2023-07-28T14:12:44;26.92;56.30
78212;SHT31;67490;52.086;5.122;2023-07-28T14:15:28;26.99;56.55
78212;SHT31;67490;52.086;5.122;2023-07-28T14:18:12;27.00;56.44
78212;SHT31;67490;52.086;5.122;2023-07-28T14:20:56;26.88;57.09
78212;SHT31;67490;52.086;5.122;2023-07-28T14:23:41;26.88;56.93
78212;SHT31;67490;52.086;5.122;2023-07-28T14:26:26;26.74;57.04
78212;SHT31;67490;52.086;5.122;2023-07-28T14:29:10;26.37;58.45
78212;SHT31;67490;52.086;5.122;2023-07-28T14:31:54;26.26;59.08
78212;SHT31;67490;52.086;5.122;2023-07-28T14:34:38;26.26;59.72
78212;SHT31;67490;52.086;5.122;2023-07-28T14:37:23;26.21;60.30
78212;SHT31;67490;52.086;5.122;2023-07-28T14:40:10;26.00;60.92
78212;SHT31;67490;52.086;5.122;2023-07-28T14:42:54;26.17;61.03
78212;SHT31;67490;52.086;5.122;2023-07-28T14:45:38;26.00;61.25
78212;SHT31;67490;52.086;5.122;2023-07-28T14:48:23;25.92;61.35
78212;SHT31;67490;52.086;5.122;2023-07-28T14:51:08;25.94;60.54
78212;SHT31;67490;52.086;5.122;2023-07-28T14:53:52;26.10;60.33
78212;SHT31;67490;52.086;5.122;2023-07-28T14:56:39;26.37;59.41
78212;SHT31;67490;52.086;5.122;2023-07-28T14:59:23;26.21;58.38
78212;SHT31;67490;52.086;5.122;2023-07-28T15:02:08;26.16;57.50
78212;SHT31;67490;52.086;5.122;2023-07-28T15:04:52;26.06;57.24
78212;SHT31;67490;52.086;5.122;2023-07-28T15:07:37;26.17;56.82
78212;SHT31;67490;52.086;5.122;2023-07-28T15:10:22;26.36;57.15
78212;SHT31;67490;52.086;5.122;2023-07-28T15:13:08;26.57;57.14
78212;SHT31;67490;52.086;5.122;2023-07-28T15:15:53;26.68;57.31
78212;SHT31;67490;52.086;5.122;2023-07-28T15:18:38;26.64;57.38
78212;SHT31;67490;52.086;5.122;2023-07-28T15:21:22;26.74;57.38
78212;SHT31;67490;52.086;5.122;2023-07-28T15:24:07;26.58;57.25
78212;SHT31;67490;52.086;5.122;2023-07-28T15:26:51;26.59;57.80
78212;SHT31;67490;52.086;5.122;2023-07-28T15:29:37;26.54;57.67
78212;SHT31;67490;52.086;5.122;2023-07-28T15:32:21;26.27;58.37
78212;SHT31;67490;52.086;5.122;2023-07-28T15:35:07;26.19;59.19
78212;SHT31;67490;52.086;5.122;2023-07-28T15:37:51;26.17;59.95
78212;SHT31;67490;52.086;5.122;2023-07-28T15:40:36;26.16;60.63
78212;SHT31;67490;52.086;5.122;2023-07-28T15:43:20;26.13;60.82
78212;SHT31;67490;52.086;5.122;2023-07-28T15:46:06;26.13;60.83
78212;SHT31;67490;52.086;5.122;2023-07-28T15:48:51;26.09;60.41
78212;SHT31;67490;52.086;5.122;2023-07-28T15:51:35;25.97;60.54
78212;SHT31;67490;52.086;5.122;2023-07-28T15:54:20;25.89;60.66
78212;SHT31;67490;52.086;5.122;2023-07-28T15:57:05;25.78;61.17
78212;SHT31;67490;52.086;5.122;2023-07-28T15:59:49;25.61;61.78
78212;SHT31;67490;52.086;5.122;2023-07-28T16:02:35;25.34;62.98
78212;SHT31;67490;52.086;5.122;2023-07-28T16:05:20;25.18;63.46
78212;SHT31;67490;52.086;5.122;2023-07-28T16:08:05;24.94;63.41
78212;SHT31;67490;52.086;5.122;2023-07-28T16:10:49;24.79;63.58
78212;SHT31;67490;52.086;5.122;2023-07-28T16:13:33;24.70;64.11
78212;SHT31;67490;52.086;5.122;2023-07-28T16:16:18;24.87;63.58
78212;SHT31;67490;52.086;5.122;2023-07-28T16:19:04;24.97;62.34
78212;SHT31;67490;52.086;5.122;2023-07-28T16:21:50;24.87;62.39
78212;SHT31;67490;52.086;5.122;2023-07-28T16:24:36;24.84;61.51
78212;SHT31;67490;52.086;5.122;2023-07-28T16:27:22;24.87;61.38
78212;SHT31;67490;52.086;5.122;2023-07-28T16:30:10;24.86;61.45
78212;SHT31;67490;52.086;5.122;2023-07-28T16:32:55;25.03;61.20
78212;SHT31;67490;52.086;5.122;2023-07-28T16:35:40;25.01;60.58
78212;SHT31;67490;52.086;5.122;2023-07-28T16:38:24;24.86;61.16
78212;SHT31;67490;52.086;5.122;2023-07-28T16:41:09;24.81;61.37
78212;SHT31;67490;52.086;5.122;2023-07-28T16:43:53;24.66;61.80
78212;SHT31;67490;52.086;5.122;2023-07-28T16:46:38;24.73;62.09
78212;SHT31;67490;52.086;5.122;2023-07-28T16:49:22;24.76;61.83
78212;SHT31;67490;52.086;5.122;2023-07-28T16:52:08;24.86;61.95
78212;SHT31;67490;52.086;5.122;2023-07-28T16:54:52;24.86;61.95
78212;SHT31;67490;52.086;5.122;2023-07-28T16:57:37;25.03;61.79
78212;SHT31;67490;52.086;5.122;2023-07-28T17:00:21;25.07;61.67
78212;SHT31;67490;52.086;5.122;2023-07-28T17:03:06;25.20;61.38
78212;SHT31;67490;52.086;5.122;2023-07-28T17:05:50;25.27;61.13
78212;SHT31;67490;52.086;5.122;2023-07-28T17:08:35;25.18;61.45
78212;SHT31;67490;52.086;5.122;2023-07-28T17:11:20;25.10;61.40
78212;SHT31;67490;52.086;5.122;2023-07-28T17:14:05;25.11;61.87
78212;SHT31;67490;52.086;5.122;2023-07-28T17:16:49;25.11;61.65
78212;SHT31;67490;52.086;5.122;2023-07-28T17:19:35;25.10;61.76
78212;SHT31;67490;52.086;5.122;2023-07-28T17:22:19;25.06;61.66